Aviation Digital Data Service (ADDS)

Output produced by TAFs form (0951 UTC 22 September 2017)
found at http://www.aviationweather.gov/adds/tafs/
 
METAR text: RJSY 220900Z 10011KT 9999 FEW030 BKN/// 21/15 Q1015
Conditions at: RJSY (SHONAI , JP) observed 0900 UTC 22 September 2017
Temperature: 21.0°C (70°F)
Dewpoint: 15.0°C (59°F) [RH = 69%]
Pressure (altimeter): 29.97 inches Hg (1015.0 mb)
Winds: from the E (100 degrees) at 13 MPH (11 knots; 5.7 m/s)
Visibility: 6 or more miles (10+ km)
Ceiling: at least 12,000 feet AGL
Clouds: few clouds at 3000 feet AGL
Weather: no significant weather observed at this time